Svay Rieng, Cambodia

1:53 PM ICT on November 27, 2014 (GMT +0700)
Tansonnhat | Change Station
CLOSE
Current Station
Airport
Location: Ho Chi Minh,
Elevation: 62 ft
Nearby Weather Stations

Elev 62 ft 10.82 °N, 106.67 °E | Updated 23 minutes ago

Partly Cloudy
Partly Cloudy
88 °F
Feels Like 98 °F
N
6
Wind Variable Wind from WSW

Today
High -- | Low -- °F
--% Chance of Precip.
Yesterday
High -- | Low -- °F
Precip. -- in
5:57 AM 5:30 PM
Waxing Crescent, 26% visible
Pressure 29.77 in
Visibility 6.2 miles
Clouds Scattered Clouds 1700 ft
Few 2000 ft
Heat Index 98 °F
Dew Point 75 °F
Humidity 66%
Rainfall 0.00 in
Snow Depth Not available.
UV 10 out of 12
Pollen Not available.
Air Quality Not available.
Flu Activity Not available.
METAR VVTS 270630Z 24005KT 210V290 9999 SCT017 FEW020TCU 31/24 Q1008 NOSIG

More Conditions Fewer Conditions

Pressure 29.77 in
Visibility 6.2 miles
Clouds Scattered Clouds 1700 ft
Few 2000 ft
Heat Index 98 °F
Dew Point 75 °F
Humidity 66%
Rainfall 0.00 in
Snow Depth Not available.
UV 10 out of 12
Pollen Not available.
Air Quality Not available.
Flu Activity Not available.
METAR VVTS 270630Z 24005KT 210V290 9999 SCT017 FEW020TCU 31/24 Q1008 NOSIG

More Conditions Fewer Conditions

10-Day Weather Forecast

Almanac

Astronomy

Nov. 27, 2014 Rise Set
Actual Time
Civil Twilight
Nautical Twilight
Astronomical Twilight
Moon
Length of Visible Light
Length of Day
Tomorrow will be .
, % of the Moon is Illuminated

Today's Extremes

Country Highs Country Lows

Community

WunderPhotos

Upload Photos

1,773,962 photos uploaded!

WunderBlogs® & News

Nearby

Air Quality

  Air Quality AQ Index Pollutant
Not available.

Snow Depth

Station Depth Elevation

Earthquake Activity

City Distance Mag. Time & Date
Minimum magnitude displayed is 2.5.

Coastal Water Temperatures

Place Temperature

Nearby Weather Stations